createdAt,value
2023-05-17T00:00:07.339Z,6.20
2023-05-17T00:02:35.860Z,6.28
2023-05-17T00:05:04.830Z,7.85
2023-05-17T00:07:36.441Z,3.42
2023-05-17T00:10:05.526Z,6.55
2023-05-17T00:12:34.286Z,9.90
2023-05-17T00:15:02.833Z,3.75
2023-05-17T00:17:33.128Z,5.38
2023-05-17T00:20:01.964Z,5.50
2023-05-17T00:22:32.720Z,6.00
2023-05-17T00:25:03.200Z,6.97
2023-05-17T00:27:32.555Z,4.88
2023-05-17T00:30:01.022Z,7.22
2023-05-17T00:32:33.688Z,4.00
2023-05-17T00:35:03.907Z,3.03
2023-05-17T00:37:34.268Z,5.72
2023-05-17T00:40:05.582Z,3.45
2023-05-17T00:42:34.378Z,4.15
2023-05-17T00:45:02.751Z,3.75
2023-05-17T00:47:33.627Z,4.57
2023-05-17T00:50:02.221Z,3.75
2023-05-17T00:52:33.322Z,4.78
2023-05-17T00:55:03.525Z,6.15
2023-05-17T00:57:34.111Z,4.05
2023-05-17T01:00:05.240Z,6.72
2023-05-17T01:02:36.063Z,9.88
2023-05-17T01:05:05.810Z,5.72
2023-05-17T01:07:36.311Z,9.15
2023-05-17T01:10:07.635Z,2.95
2023-05-17T01:12:43.417Z,4.55
2023-05-17T01:15:16.526Z,2.97
2023-05-17T01:17:53.664Z,5.38
2023-05-17T01:20:27.082Z,4.13
2023-05-17T01:23:12.367Z,10.25
2023-05-17T01:25:53.826Z,7.15
2023-05-17T01:28:24.915Z,5.10
2023-05-17T01:30:55.756Z,6.75
2023-05-17T01:33:25.012Z,8.10
2023-05-17T01:35:53.700Z,6.25
2023-05-17T01:38:23.820Z,8.77
2023-05-17T01:40:56.446Z,8.40
2023-05-17T01:43:33.238Z,6.53
2023-05-17T01:46:11.690Z,5.15
2023-05-17T01:48:42.418Z,9.30
2023-05-17T01:51:15.531Z,6.55
2023-05-17T01:53:49.171Z,10.82
2023-05-17T01:56:22.346Z,9.82
2023-05-17T01:58:54.080Z,8.68
2023-05-17T02:01:23.080Z,10.57
2023-05-17T02:03:52.097Z,5.53
2023-05-17T02:06:21.035Z,5.15
2023-05-17T02:08:49.460Z,9.88
2023-05-17T02:11:17.931Z,5.50
2023-05-17T02:13:46.607Z,5.47
2023-05-17T02:16:19.989Z,8.95
2023-05-17T02:18:49.344Z,10.80
2023-05-17T02:21:18.643Z,10.95
2023-05-17T02:23:47.261Z,8.30
2023-05-17T02:26:16.151Z,8.52
2023-05-17T02:28:44.668Z,8.43
2023-05-17T02:31:13.402Z,8.00
2023-05-17T02:33:44.077Z,8.10
2023-05-17T02:36:12.708Z,6.53
2023-05-17T02:38:41.212Z,6.38
2023-05-17T02:41:10.257Z,8.50
2023-05-17T02:43:38.875Z,6.90
2023-05-17T02:46:07.356Z,6.25
2023-05-17T02:48:38.930Z,4.28
2023-05-17T02:51:08.961Z,11.75
2023-05-17T02:53:37.603Z,8.48
2023-05-17T02:56:07.006Z,5.05
2023-05-17T02:58:35.601Z,4.78
2023-05-17T03:01:04.345Z,4.20
2023-05-17T03:03:33.297Z,7.22
2023-05-17T03:06:06.060Z,6.93
2023-05-17T03:08:36.624Z,5.95
2023-05-17T03:11:06.009Z,7.20
2023-05-17T03:13:34.508Z,5.00
2023-05-17T03:16:03.583Z,8.07
2023-05-17T03:18:32.789Z,4.13
2023-05-17T03:21:01.542Z,6.88
2023-05-17T03:23:30.408Z,7.05
2023-05-17T03:26:02.735Z,8.02
2023-05-17T03:28:36.201Z,4.18
2023-05-17T03:31:04.952Z,4.28
2023-05-17T03:33:35.311Z,5.38
2023-05-17T03:36:07.328Z,3.88
2023-05-17T03:38:36.430Z,8.80
2023-05-17T03:41:07.028Z,7.75
2023-05-17T03:43:35.824Z,12.00
2023-05-17T03:46:04.258Z,6.85
2023-05-17T03:48:35.923Z,5.03
2023-05-17T03:51:08.474Z,5.72
2023-05-17T03:53:41.328Z,10.88
2023-05-17T03:56:11.501Z,6.72
2023-05-17T03:58:39.943Z,7.85
2023-05-17T04:01:08.672Z,5.35
2023-05-17T04:03:37.731Z,4.88
2023-05-17T04:06:08.412Z,9.15
2023-05-17T04:08:38.766Z,9.13
2023-05-17T04:11:13.122Z,9.35
2023-05-17T04:13:44.482Z,8.40
2023-05-17T04:16:13.225Z,6.57
2023-05-17T04:18:43.531Z,6.40
2023-05-17T04:21:14.798Z,6.50
2023-05-17T04:23:43.330Z,3.83
2023-05-17T04:26:15.081Z,4.25
2023-05-17T04:28:46.183Z,10.52
2023-05-17T04:31:18.009Z,8.80
2023-05-17T04:33:47.749Z,10.75
2023-05-17T04:36:17.659Z,8.23
2023-05-17T04:38:46.612Z,9.02
2023-05-17T04:41:19.139Z,6.65
2023-05-17T04:43:49.325Z,7.03
2023-05-17T04:46:24.014Z,10.23
2023-05-17T04:48:53.582Z,7.70
2023-05-17T04:51:23.339Z,9.55
2023-05-17T04:53:53.153Z,7.72
2023-05-17T04:56:21.693Z,4.82
2023-05-17T04:58:52.983Z,7.43
2023-05-17T05:01:23.276Z,9.90
2023-05-17T05:03:52.640Z,8.38
2023-05-17T05:06:22.397Z,13.27
2023-05-17T05:08:51.344Z,5.90
2023-05-17T05:11:20.157Z,7.35
2023-05-17T05:13:48.906Z,6.10
2023-05-17T05:16:22.243Z,6.15
2023-05-17T05:18:50.871Z,9.32
2023-05-17T05:21:25.382Z,7.32
2023-05-17T05:23:56.066Z,6.03
2023-05-17T05:26:27.029Z,8.02
2023-05-17T05:29:00.135Z,7.05
2023-05-17T05:31:31.255Z,8.93
2023-05-17T05:34:03.319Z,4.67
2023-05-17T05:36:32.231Z,6.40
2023-05-17T05:39:09.232Z,8.38
2023-05-17T05:41:38.332Z,6.50
2023-05-17T05:44:09.497Z,8.15
2023-05-17T05:46:41.548Z,8.48
2023-05-17T05:49:10.622Z,5.43
2023-05-17T05:51:40.770Z,8.52
2023-05-17T05:54:09.530Z,13.63
2023-05-17T05:56:38.041Z,3.53
2023-05-17T05:59:07.684Z,4.38
2023-05-17T06:01:36.209Z,4.85
2023-05-17T06:04:06.436Z,7.15
2023-05-17T06:06:35.825Z,4.43
2023-05-17T06:09:07.084Z,3.20
2023-05-17T06:11:36.593Z,7.60
2023-05-17T06:14:04.965Z,10.00
2023-05-17T06:16:35.472Z,7.72
2023-05-17T06:19:05.370Z,7.03
2023-05-17T06:21:34.038Z,1.48
2023-05-17T06:24:04.950Z,6.85
2023-05-17T06:26:33.875Z,2.47
2023-05-17T06:29:02.618Z,6.28
2023-05-17T06:31:32.952Z,5.45
2023-05-17T06:34:01.988Z,8.32
2023-05-17T06:36:32.663Z,4.05
2023-05-17T06:39:04.336Z,6.05
2023-05-17T06:41:33.033Z,4.93
2023-05-17T06:44:01.615Z,4.90
2023-05-17T06:46:32.989Z,4.28
2023-05-17T06:49:01.903Z,2.35
2023-05-17T06:51:31.846Z,2.95
2023-05-17T06:54:00.313Z,2.25
2023-05-17T06:56:28.737Z,5.53
2023-05-17T06:58:57.432Z,4.93
2023-05-17T07:01:25.911Z,5.90
2023-05-17T07:03:56.933Z,2.20
2023-05-17T07:06:26.802Z,2.38
2023-05-17T07:08:56.784Z,5.45
2023-05-17T07:11:25.606Z,3.00
2023-05-17T07:13:58.364Z,5.18
2023-05-17T07:16:27.039Z,6.75
2023-05-17T07:18:55.970Z,6.95
2023-05-17T07:21:24.899Z,3.67
2023-05-17T07:23:53.747Z,4.03
2023-05-17T07:26:23.899Z,6.07
2023-05-17T07:28:54.064Z,3.38
2023-05-17T07:31:22.810Z,5.72
2023-05-17T07:33:51.291Z,3.78
2023-05-17T07:36:21.925Z,2.45
2023-05-17T07:38:51.012Z,4.05
2023-05-17T07:41:22.533Z,2.55
2023-05-17T07:43:52.587Z,3.78
2023-05-17T07:46:21.570Z,3.70
2023-05-17T07:48:50.240Z,4.22
2023-05-17T07:51:19.013Z,6.75
2023-05-17T07:53:47.414Z,2.75
2023-05-17T07:56:17.003Z,9.30
2023-05-17T07:58:45.784Z,15.32
2023-05-17T08:01:15.688Z,6.45
2023-05-17T08:03:49.540Z,1.65
2023-05-17T08:06:18.402Z,2.92
2023-05-17T08:08:47.345Z,8.52
2023-05-17T08:11:16.055Z,2.45
2023-05-17T08:13:44.958Z,2.50
2023-05-17T08:16:15.244Z,1.65
2023-05-17T08:18:44.296Z,2.22
2023-05-17T08:21:13.046Z,3.53
2023-05-17T08:23:42.337Z,6.07
2023-05-17T08:26:12.621Z,3.25
2023-05-17T08:28:41.122Z,6.88
2023-05-17T08:31:09.515Z,3.58
2023-05-17T08:33:50.504Z,4.32
2023-05-17T08:36:19.224Z,7.22
2023-05-17T08:38:47.767Z,5.30
2023-05-17T08:41:16.360Z,4.95
2023-05-17T08:43:45.250Z,2.08
2023-05-17T08:46:16.964Z,5.20
2023-05-17T08:48:50.668Z,3.85
2023-05-17T08:51:20.795Z,6.05
2023-05-17T08:53:50.711Z,4.70
2023-05-17T08:56:19.897Z,5.57
2023-05-17T08:58:56.179Z,1.85
2023-05-17T09:01:32.916Z,4.95
2023-05-17T09:04:03.502Z,3.40
2023-05-17T09:06:37.779Z,2.75
2023-05-17T09:09:08.020Z,4.40
2023-05-17T09:11:36.833Z,2.63
2023-05-17T09:14:06.802Z,3.60
2023-05-17T09:16:38.654Z,4.88
2023-05-17T09:19:09.884Z,4.18
2023-05-17T09:21:38.719Z,3.42
2023-05-17T09:24:10.047Z,3.03
2023-05-17T09:26:41.884Z,3.72
2023-05-17T09:29:11.691Z,2.78
2023-05-17T09:31:40.921Z,2.53
2023-05-17T09:34:11.338Z,7.50
2023-05-17T09:36:43.527Z,4.03
2023-05-17T09:39:13.598Z,5.50
2023-05-17T09:41:45.627Z,8.13
2023-05-17T09:44:15.881Z,5.07
2023-05-17T09:46:47.490Z,8.48
2023-05-17T09:49:19.028Z,3.58
2023-05-17T09:51:49.951Z,11.38
2023-05-17T09:54:19.482Z,3.05
2023-05-17T09:56:55.043Z,6.90
2023-05-17T09:59:24.145Z,2.60
2023-05-17T10:01:54.517Z,3.58
2023-05-17T10:04:26.936Z,6.95
2023-05-17T10:06:56.539Z,4.20
2023-05-17T10:09:25.273Z,8.75
2023-05-17T10:11:56.645Z,3.20
2023-05-17T10:14:29.487Z,5.90
2023-05-17T10:16:58.636Z,13.23
2023-05-17T10:19:28.502Z,2.25
2023-05-17T10:22:05.066Z,3.97
2023-05-17T10:24:40.131Z,6.28
2023-05-17T10:27:09.049Z,3.80
2023-05-17T10:29:37.983Z,5.50
2023-05-17T10:32:08.801Z,4.15
2023-05-17T10:34:39.769Z,4.03
2023-05-17T10:37:11.744Z,7.75
2023-05-17T10:39:40.473Z,2.58
2023-05-17T10:44:41.950Z,5.18
2023-05-17T10:47:13.520Z,1.48
2023-05-17T10:49:48.199Z,5.20
2023-05-17T10:52:18.975Z,3.30
2023-05-17T10:54:50.108Z,3.47
2023-05-17T10:57:23.902Z,12.65
2023-05-17T11:02:29.401Z,4.80
2023-05-17T11:05:00.641Z,5.50
2023-05-17T11:07:32.363Z,6.95
2023-05-17T11:10:07.887Z,2.20
2023-05-17T11:12:40.504Z,4.88
2023-05-17T11:15:11.115Z,4.60
2023-05-17T11:17:54.194Z,3.67
2023-05-17T11:20:36.012Z,5.40
2023-05-17T11:23:06.493Z,3.72
2023-05-17T11:25:36.225Z,4.57
2023-05-17T11:28:10.006Z,3.20
2023-05-17T11:30:43.638Z,3.30
2023-05-17T11:33:25.391Z,1.92
2023-05-17T11:36:05.505Z,4.65
2023-05-17T11:38:34.613Z,6.32
2023-05-17T11:43:51.841Z,4.10
2023-05-17T11:46:24.269Z,2.10
2023-05-17T11:48:54.130Z,2.30
2023-05-17T11:51:25.339Z,10.75
2023-05-17T11:53:56.185Z,2.20
2023-05-17T11:56:35.505Z,5.20
2023-05-17T11:59:11.792Z,3.92
2023-05-17T12:01:44.593Z,7.28
2023-05-17T12:04:13.485Z,2.70
2023-05-17T12:06:46.181Z,4.47
2023-05-17T12:09:20.153Z,4.55
2023-05-17T12:14:18.496Z,8.73
2023-05-17T12:16:52.247Z,2.83
2023-05-17T12:19:25.219Z,8.45
2023-05-17T12:21:55.272Z,5.80
2023-05-17T12:24:23.945Z,5.50
2023-05-17T12:26:52.454Z,3.45
2023-05-17T12:29:23.428Z,5.88
2023-05-17T12:31:53.699Z,6.07
2023-05-17T12:34:22.237Z,4.25
2023-05-17T12:36:52.870Z,5.40
2023-05-17T12:39:24.313Z,7.10
2023-05-17T12:41:53.295Z,4.57
2023-05-17T12:44:22.172Z,4.72
2023-05-17T12:46:53.962Z,4.60
2023-05-17T12:49:23.637Z,3.95
2023-05-17T12:51:52.103Z,3.20
2023-05-17T12:54:34.408Z,4.35
2023-05-17T12:57:12.715Z,3.85
2023-05-17T12:59:49.255Z,4.65
2023-05-17T13:02:18.547Z,4.80
2023-05-17T13:04:47.843Z,5.38
2023-05-17T13:07:23.006Z,7.60
2023-05-17T13:09:53.174Z,4.72
2023-05-17T13:12:22.951Z,5.65
2023-05-17T13:14:53.681Z,2.42
2023-05-17T13:17:38.595Z,5.57
2023-05-17T13:20:10.729Z,3.40
2023-05-17T13:22:42.380Z,8.18
2023-05-17T13:25:14.396Z,13.00
2023-05-17T13:27:46.901Z,3.15
2023-05-17T13:30:16.361Z,3.92
2023-05-17T13:32:47.287Z,5.18
2023-05-17T13:35:16.176Z,4.65
2023-05-17T13:37:44.646Z,6.97
2023-05-17T13:40:15.709Z,2.83
2023-05-17T13:42:44.305Z,8.38
2023-05-17T13:45:13.788Z,3.08
2023-05-17T13:47:44.322Z,9.32
2023-05-17T13:50:16.150Z,6.43
2023-05-17T13:52:45.112Z,6.43
2023-05-17T13:55:15.072Z,6.30
2023-05-17T13:57:43.837Z,6.35
2023-05-17T14:00:13.520Z,3.38
2023-05-17T14:02:42.072Z,3.33
2023-05-17T14:05:11.796Z,3.40
2023-05-17T14:07:41.599Z,7.30
2023-05-17T14:10:12.374Z,7.88
2023-05-17T14:12:42.568Z,8.55
2023-05-17T14:15:12.218Z,6.65
2023-05-17T14:17:41.408Z,1.77
2023-05-17T14:20:11.438Z,9.93
2023-05-17T14:22:40.126Z,3.55
2023-05-17T14:25:11.464Z,7.13
2023-05-17T14:27:42.624Z,11.23
2023-05-17T14:30:13.624Z,2.88
2023-05-17T14:32:42.250Z,2.92
2023-05-17T14:35:14.211Z,3.28
2023-05-17T14:37:45.625Z,6.97
2023-05-17T14:40:14.907Z,12.13
2023-05-17T14:42:44.698Z,7.82
2023-05-17T14:45:13.945Z,10.40
2023-05-17T14:47:42.570Z,5.18
2023-05-17T14:50:12.180Z,8.40
2023-05-17T14:52:40.759Z,3.60
2023-05-17T14:55:10.240Z,4.60
2023-05-17T14:57:40.269Z,5.88
2023-05-17T15:00:11.798Z,4.90
2023-05-17T15:02:40.596Z,3.05
2023-05-17T15:05:10.732Z,10.35
2023-05-17T15:07:39.423Z,4.22
2023-05-17T15:10:10.040Z,7.13
2023-05-17T15:12:38.738Z,6.57
2023-05-17T15:15:08.870Z,8.63
2023-05-17T15:17:39.316Z,5.57
2023-05-17T15:20:10.861Z,4.07
2023-05-17T15:22:39.692Z,7.57
2023-05-17T15:25:08.897Z,5.10
2023-05-17T15:27:37.677Z,6.90
2023-05-17T15:30:07.382Z,4.53
2023-05-17T15:32:36.772Z,11.73
2023-05-17T15:35:07.833Z,3.58
2023-05-17T15:37:39.133Z,6.15
2023-05-17T15:40:09.981Z,8.45
2023-05-17T15:42:39.120Z,4.28
2023-05-17T15:45:08.025Z,5.85
2023-05-17T15:47:43.214Z,3.80
2023-05-17T15:50:14.076Z,5.22
2023-05-17T15:52:43.072Z,7.30
2023-05-17T15:55:12.456Z,11.13
2023-05-17T15:57:41.484Z,5.70
2023-05-17T16:00:11.965Z,5.43
2023-05-17T16:02:40.565Z,7.70
2023-05-17T16:05:10.491Z,6.13
2023-05-17T16:07:40.604Z,5.30
2023-05-17T16:10:10.731Z,6.00
2023-05-17T16:12:39.419Z,4.72
2023-05-17T16:15:09.520Z,6.22
2023-05-17T16:17:38.362Z,8.05
2023-05-17T16:20:07.914Z,15.57
2023-05-17T16:22:45.954Z,6.13
2023-05-17T16:25:17.580Z,7.22
2023-05-17T16:27:50.383Z,3.22
2023-05-17T16:30:19.535Z,9.20
2023-05-17T16:32:48.623Z,9.90
2023-05-17T16:35:22.308Z,9.05
2023-05-17T16:37:52.697Z,4.75
2023-05-17T16:40:21.252Z,5.50
2023-05-17T16:42:49.825Z,8.60
2023-05-17T16:45:18.226Z,4.70
2023-05-17T16:47:46.800Z,5.90
2023-05-17T16:50:15.678Z,6.47
2023-05-17T16:52:45.472Z,8.98
2023-05-17T16:55:15.320Z,7.13
2023-05-17T16:57:43.957Z,11.18
2023-05-17T17:00:13.598Z,3.35
2023-05-17T17:02:42.327Z,10.77
2023-05-17T17:05:11.408Z,9.38
2023-05-17T17:07:39.895Z,15.10
2023-05-17T17:10:09.121Z,10.90
2023-05-17T17:12:39.039Z,10.27
2023-05-17T17:15:09.419Z,4.88
2023-05-17T17:17:38.016Z,12.65
2023-05-17T17:20:09.238Z,13.05
2023-05-17T17:22:37.951Z,13.02
2023-05-17T17:25:07.941Z,16.35
2023-05-17T17:27:36.947Z,6.25
2023-05-17T17:30:07.910Z,5.55
2023-05-17T17:32:38.766Z,7.97
2023-05-17T17:35:08.497Z,15.27
2023-05-17T17:37:36.907Z,9.15
2023-05-17T17:40:06.576Z,13.68
2023-05-17T17:42:35.173Z,9.57
2023-05-17T17:45:03.516Z,14.55
2023-05-17T17:47:36.056Z,11.32
2023-05-17T17:50:04.693Z,12.40
2023-05-17T17:52:34.102Z,9.93
2023-05-17T17:55:02.849Z,14.50
2023-05-17T17:57:33.914Z,10.55
2023-05-17T18:00:05.624Z,6.28
2023-05-17T18:02:36.948Z,19.27
2023-05-17T18:05:05.983Z,6.45
2023-05-17T18:07:34.717Z,9.32
2023-05-17T18:10:03.451Z,10.40
2023-05-17T18:12:33.521Z,7.55
2023-05-17T18:15:02.337Z,12.20
2023-05-17T18:17:34.510Z,10.13
2023-05-17T18:20:06.844Z,11.48
2023-05-17T18:22:35.891Z,7.93
2023-05-17T18:25:04.668Z,10.15
2023-05-17T18:27:33.622Z,13.63
2023-05-17T18:30:02.064Z,9.55
2023-05-17T18:32:37.224Z,11.52
2023-05-17T18:35:10.643Z,14.50
2023-05-17T18:37:39.372Z,10.88
2023-05-17T18:40:09.104Z,9.07
2023-05-17T18:42:37.872Z,13.32
2023-05-17T18:45:07.990Z,13.18
2023-05-17T18:47:36.702Z,10.85
2023-05-17T18:50:05.399Z,8.23
2023-05-17T18:52:35.429Z,16.38
2023-05-17T18:55:04.090Z,10.00
2023-05-17T18:57:34.539Z,14.65
2023-05-17T19:00:04.163Z,15.48
2023-05-17T19:02:35.481Z,9.13
2023-05-17T19:05:04.215Z,14.73
2023-05-17T19:07:33.613Z,11.68
2023-05-17T19:10:04.455Z,13.40
2023-05-17T19:12:35.607Z,16.63
2023-05-17T19:15:04.635Z,11.95
2023-05-17T19:17:35.862Z,11.60
2023-05-17T19:20:05.349Z,14.82
2023-05-17T19:22:36.570Z,12.93
2023-05-17T19:25:07.939Z,13.95
2023-05-17T19:27:39.282Z,19.13
2023-05-17T19:30:09.537Z,18.70
2023-05-17T19:32:38.010Z,19.30
2023-05-17T19:35:07.471Z,13.50
2023-05-17T19:37:36.191Z,18.75
2023-05-17T19:40:07.088Z,17.45
2023-05-17T19:42:35.695Z,8.85
2023-05-17T19:45:04.532Z,17.90
2023-05-17T19:47:34.853Z,16.80
2023-05-17T19:50:03.330Z,13.57
2023-05-17T19:52:33.201Z,12.23
2023-05-17T19:55:06.528Z,11.73
2023-05-17T19:57:37.101Z,10.90
2023-05-17T20:00:07.912Z,14.70
2023-05-17T20:02:37.435Z,15.90
2023-05-17T20:05:06.695Z,14.77
2023-05-17T20:07:35.111Z,16.30
2023-05-17T20:10:03.958Z,18.48
2023-05-17T20:12:33.546Z,19.88
2023-05-17T20:15:03.569Z,15.85
2023-05-17T20:17:33.441Z,14.95
2023-05-17T20:20:02.302Z,18.05
2023-05-17T20:22:33.437Z,19.83
2023-05-17T20:25:02.001Z,11.60
2023-05-17T20:27:36.741Z,8.40
2023-05-17T20:30:08.449Z,15.65
2023-05-17T20:32:37.233Z,14.02
2023-05-17T20:35:06.401Z,17.00
2023-05-17T20:37:35.137Z,11.07
2023-05-17T20:40:09.714Z,9.57
2023-05-17T20:42:40.471Z,19.90
2023-05-17T20:45:13.273Z,19.90
2023-05-17T20:50:14.326Z,14.52
2023-05-17T20:52:43.488Z,14.95
2023-05-17T20:55:12.053Z,20.40
2023-05-17T20:57:40.811Z,15.90
2023-05-17T21:00:12.025Z,16.00
2023-05-17T21:02:40.928Z,24.35
2023-05-17T21:05:10.931Z,22.63
2023-05-17T21:07:40.424Z,21.35
2023-05-17T21:10:13.050Z,26.58
2023-05-17T21:12:41.697Z,14.68
2023-05-17T21:17:44.213Z,16.35
2023-05-17T21:20:16.237Z,13.32
2023-05-17T21:22:46.061Z,31.75
2023-05-17T21:25:14.736Z,18.30
2023-05-17T21:27:43.479Z,15.23
2023-05-17T21:30:13.841Z,18.77
2023-05-17T21:32:42.993Z,15.48
2023-05-17T21:35:11.631Z,16.55
2023-05-17T21:37:43.486Z,19.77
2023-05-17T21:40:12.516Z,17.50
2023-05-17T21:42:41.202Z,18.23
2023-05-17T21:45:10.807Z,20.58
2023-05-17T21:47:40.730Z,20.85
2023-05-17T21:50:09.855Z,15.30
2023-05-17T21:52:38.560Z,21.15
2023-05-17T21:55:08.507Z,22.95
2023-05-17T21:57:37.226Z,17.75
2023-05-17T22:00:12.742Z,14.23
2023-05-17T22:02:45.159Z,21.58
2023-05-17T22:05:17.005Z,13.38
2023-05-17T22:07:46.942Z,19.00
2023-05-17T22:10:15.549Z,19.73
2023-05-17T22:12:44.158Z,19.45
2023-05-17T22:15:13.700Z,24.92
2023-05-17T22:17:51.770Z,14.95
2023-05-17T22:20:23.916Z,22.30
2023-05-17T22:22:52.907Z,17.77
2023-05-17T22:25:21.410Z,21.48
2023-05-17T22:27:50.146Z,25.95
2023-05-17T22:30:18.652Z,18.27
2023-05-17T22:32:48.847Z,24.30
2023-05-17T22:35:20.024Z,14.93
2023-05-17T22:37:50.143Z,22.70
2023-05-17T22:40:18.622Z,14.25
2023-05-17T22:42:48.388Z,14.30
2023-05-17T22:45:16.915Z,15.93
2023-05-17T22:47:46.926Z,18.75
2023-05-17T22:50:16.951Z,22.05
2023-05-17T22:52:46.525Z,21.02
2023-05-17T22:55:15.001Z,19.38
2023-05-17T22:57:43.780Z,21.92
2023-05-17T23:00:13.612Z,16.52
2023-05-17T23:02:42.045Z,16.60
2023-05-17T23:05:11.320Z,21.92
2023-05-17T23:07:43.285Z,17.33
2023-05-17T23:10:13.712Z,24.60
2023-05-17T23:12:42.202Z,21.58
2023-05-17T23:15:11.657Z,18.40
2023-05-17T23:17:44.202Z,17.92
2023-05-17T23:20:15.864Z,21.38
2023-05-17T23:22:47.726Z,22.17
2023-05-17T23:25:16.763Z,19.98
2023-05-17T23:27:45.551Z,15.90
2023-05-17T23:30:14.556Z,18.33
2023-05-17T23:32:46.754Z,14.63
2023-05-17T23:35:15.507Z,13.20
2023-05-17T23:37:48.237Z,21.63
2023-05-17T23:40:20.967Z,16.92
2023-05-17T23:42:55.346Z,13.43
2023-05-17T23:45:31.079Z,19.75
2023-05-17T23:48:01.304Z,15.52
2023-05-17T23:50:29.956Z,15.73
2023-05-17T23:53:03.838Z,12.65
2023-05-17T23:55:32.566Z,19.70
2023-05-17T23:58:01.193Z,18.88
